Time;durP1;ratioP1;P1;durP2;ratioP2;P2;SDS_P1;SDS_P2;PMS_P1;PMS_P2;Temp;Humidity;BMP_temperature;BMP_pressure;BME280_temperature;BME280_humidity;BME280_pressure;Samples;Min_cycle;Max_cycle;Signal;HPM_P1;HPM_P2
2024/04/01 00:00:27;;;;;;;0.10;0.10;;;15.10;82.00;;;;;;5006960;28;20125;-76
2024/04/01 00:02:52;;;;;;;0.10;0.10;;;15.20;82.60;;;;;;5001073;28;20507;-76
2024/04/01 00:05:18;;;;;;;0.17;0.17;;;15.10;81.80;;;;;;5003387;28;20030;-76
2024/04/01 00:07:45;;;;;;;0.00;0.00;;;15.20;82.10;;;;;;5005431;28;20103;-76
2024/04/01 00:10:10;;;;;;;0.30;0.20;;;15.10;81.90;;;;;;5005026;28;20057;-76
2024/04/01 00:12:36;;;;;;;0.13;0.13;;;15.20;81.90;;;;;;5002176;28;20046;-76
2024/04/01 00:15:03;;;;;;;0.03;0.03;;;15.10;81.90;;;;;;5033178;28;20068;-76
2024/04/01 00:17:28;;;;;;;0.17;0.10;;;15.10;82.40;;;;;;4986749;28;20034;-76
2024/04/01 00:19:54;;;;;;;0.05;0.00;;;15.10;82.30;;;;;;5005748;28;20033;-76
2024/04/01 00:22:19;;;;;;;0.10;0.10;;;15.10;82.40;;;;;;4991878;28;20522;-76
2024/04/01 00:24:45;;;;;;;0.20;0.20;;;15.10;82.30;;;;;;5008655;28;20037;-76
2024/04/01 00:27:11;;;;;;;0.10;0.10;;;15.10;82.10;;;;;;5007676;28;20068;-76
2024/04/01 00:29:37;;;;;;;0.00;0.00;;;15.10;82.30;;;;;;5009868;28;20507;-76
2024/04/01 00:32:02;;;;;;;0.30;0.10;;;15.10;82.20;;;;;;5009170;28;20066;-76
2024/04/01 00:34:28;;;;;;;0.20;0.10;;;15.10;81.80;;;;;;5007613;28;20041;-76
2024/04/01 00:36:53;;;;;;;0.10;0.10;;;15.10;82.20;;;;;;5007183;28;20054;-76
2024/04/01 00:39:19;;;;;;;0.10;0.10;;;15.10;82.30;;;;;;5038654;28;20034;-76
2024/04/01 00:41:44;;;;;;;0.30;0.20;;;15.10;82.50;;;;;;5003665;28;20026;-75
2024/04/01 00:44:10;;;;;;;0.08;0.08;;;15.10;82.50;;;;;;5036131;28;20084;-76
2024/04/01 00:46:36;;;;;;;0.10;0.10;;;15.10;82.00;;;;;;5005970;28;20431;-76
2024/04/01 00:49:01;;;;;;;0.10;0.10;;;15.10;82.10;;;;;;5006154;28;20128;-75
2024/04/01 00:51:27;;;;;;;0.00;0.00;;;15.10;82.20;;;;;;5008732;28;20392;-76
2024/04/01 00:53:53;;;;;;;0.10;0.10;;;15.10;82.30;;;;;;5005484;28;20049;-76
2024/04/01 00:56:18;;;;;;;0.45;0.32;;;15.10;82.50;;;;;;5020652;28;20492;-75
2024/04/01 00:58:45;;;;;;;0.10;0.10;;;15.10;82.40;;;;;;4990905;28;20132;-76
2024/04/01 01:01:11;;;;;;;0.20;0.20;;;15.10;82.30;;;;;;4992112;28;20042;-76
2024/04/01 01:03:38;;;;;;;0.10;0.10;;;15.10;82.40;;;;;;5008798;28;20369;-76
2024/04/01 01:06:04;;;;;;;0.10;0.10;;;15.10;82.20;;;;;;5004722;28;20038;-76
2024/04/01 01:08:30;;;;;;;0.10;0.10;;;15.10;82.30;;;;;;4991304;28;20034;-75
2024/04/01 01:10:56;;;;;;;0.10;0.10;;;15.00;82.50;;;;;;4990426;28;20569;-76
2024/04/01 01:13:21;;;;;;;0.10;0.10;;;15.10;82.40;;;;;;5022633;28;20061;-75
2024/04/01 01:15:47;;;;;;;0.10;0.10;;;15.00;82.50;;;;;;5007303;28;20128;-76
2024/04/01 01:18:13;;;;;;;0.10;0.10;;;15.00;82.10;;;;;;4990638;28;20041;-76
2024/04/01 01:20:38;;;;;;;0.10;0.10;;;15.10;82.50;;;;;;4991215;28;20443;-76
2024/04/01 01:23:04;;;;;;;0.20;0.13;;;15.00;82.10;;;;;;4990528;28;20120;-76
2024/04/01 01:25:30;;;;;;;0.20;0.13;;;15.00;81.80;;;;;;4991479;28;20052;-76
2024/04/01 01:27:55;;;;;;;0.10;0.10;;;15.00;82.10;;;;;;5006624;28;20046;-76
2024/04/01 01:30:21;;;;;;;0.10;0.10;;;15.00;82.20;;;;;;5005346;28;20388;-76
2024/04/01 01:32:51;;;;;;;0.20;0.20;;;15.00;82.30;;;;;;5007764;28;20045;-76
2024/04/01 01:35:22;;;;;;;0.20;0.10;;;15.00;82.20;;;;;;4991740;28;20036;-76
2024/04/01 01:37:48;;;;;;;0.00;0.00;;;15.00;81.50;;;;;;5005278;28;20042;-76
2024/04/01 01:40:14;;;;;;;0.10;0.10;;;15.00;82.20;;;;;;5005144;28;20041;-76
2024/04/01 01:42:39;;;;;;;0.05;0.05;;;15.00;82.10;;;;;;5007862;28;20038;-76
2024/04/01 01:45:06;;;;;;;0.10;0.10;;;15.00;82.20;;;;;;5006841;28;20579;-76
2024/04/01 01:47:35;;;;;;;0.20;0.10;;;14.90;81.90;;;;;;5005568;28;20042;-75
2024/04/01 01:50:01;;;;;;;0.10;0.10;;;15.00;82.10;;;;;;5007879;28;20069;-76
2024/04/01 01:52:27;;;;;;;0.00;0.00;;;15.00;82.20;;;;;;5004877;28;20137;-76
2024/04/01 01:54:53;;;;;;;0.00;0.00;;;15.00;82.00;;;;;;5005582;28;20130;-76
2024/04/01 01:57:18;;;;;;;0.10;0.10;;;15.00;81.90;;;;;;5005224;28;20060;-76
2024/04/01 01:59:44;;;;;;;0.10;0.10;;;15.00;82.20;;;;;;4990351;28;20046;-76
2024/04/01 02:02:11;;;;;;;0.10;0.10;;;15.00;82.00;;;;;;5007334;28;20053;-76
2024/04/01 02:04:36;;;;;;;0.10;0.10;;;15.00;82.50;;;;;;5035488;28;20053;-76
2024/04/01 02:07:04;;;;;;;0.20;0.20;;;14.90;82.30;;;;;;5006160;28;20407;-76
2024/04/01 02:09:29;;;;;;;0.15;0.15;;;14.90;82.10;;;;;;5036565;28;20117;-76
2024/04/01 02:11:55;;;;;;;0.10;0.10;;;15.00;81.70;;;;;;5033463;28;20479;-76
2024/04/01 02:14:20;;;;;;;0.10;0.10;;;14.90;81.90;;;;;;4990194;28;20039;-76
2024/04/01 02:16:46;;;;;;;0.10;0.10;;;15.00;82.10;;;;;;5033814;28;20372;-76
2024/04/01 02:19:13;;;;;;;0.05;0.05;;;15.00;82.10;;;;;;5020731;28;20047;-76
2024/04/01 02:21:39;;;;;;;0.10;0.10;;;15.00;82.00;;;;;;5005832;28;20093;-75
2024/04/01 02:24:05;;;;;;;0.10;0.10;;;14.90;82.10;;;;;;5002014;28;20080;-76
2024/04/01 02:26:30;;;;;;;0.20;0.10;;;15.00;81.80;;;;;;4989379;28;20049;-76
2024/04/01 02:28:56;;;;;;;0.20;0.20;;;14.90;81.80;;;;;;5005811;28;20536;-76
2024/04/01 02:31:21;;;;;;;0.20;0.20;;;15.00;81.00;;;;;;5007091;28;20037;-76
2024/04/01 02:33:47;;;;;;;0.20;0.10;;;15.00;81.20;;;;;;5005707;28;20172;-76
2024/04/01 02:36:13;;;;;;;0.10;0.10;;;15.00;81.30;;;;;;5019325;28;20099;-76
2024/04/01 02:38:38;;;;;;;0.20;0.20;;;15.00;81.60;;;;;;5033811;28;20026;-76
2024/04/01 02:41:04;;;;;;;0.10;0.10;;;15.00;81.80;;;;;;5031659;28;20049;-76
2024/04/01 02:43:30;;;;;;;0.03;0.00;;;15.00;81.30;;;;;;5035763;28;20042;-76
2024/04/01 02:45:55;;;;;;;0.08;0.05;;;15.00;81.60;;;;;;5005172;28;20034;-76
2024/04/01 02:48:21;;;;;;;0.10;0.10;;;15.00;81.50;;;;;;5005597;28;20049;-76
2024/04/01 02:50:47;;;;;;;0.28;0.10;;;15.00;81.70;;;;;;4988569;28;20042;-76
2024/04/01 02:53:13;;;;;;;0.05;0.05;;;15.00;81.70;;;;;;4989405;28;20045;-76
2024/04/01 02:55:38;;;;;;;0.17;0.17;;;15.00;81.50;;;;;;4985949;28;20046;-76
2024/04/01 02:58:04;;;;;;;0.32;0.10;;;15.00;81.20;;;;;;4986149;28;20050;-75
2024/04/01 03:00:30;;;;;;;0.17;0.17;;;14.90;80.90;;;;;;5002848;28;20415;-76
2024/04/01 03:02:56;;;;;;;0.00;0.00;;;14.90;81.30;;;;;;5005052;28;20555;-76
2024/04/01 03:05:21;;;;;;;0.08;0.03;;;15.00;81.70;;;;;;5035494;28;20119;-76
2024/04/01 03:07:49;;;;;;;0.10;0.10;;;15.00;81.70;;;;;;4989030;28;20528;-76
2024/04/01 03:10:15;;;;;;;0.10;0.10;;;14.90;81.40;;;;;;5003871;28;20080;-76
2024/04/01 03:12:41;;;;;;;0.10;0.10;;;15.00;81.50;;;;;;4988594;28;20049;-76
2024/04/01 03:15:18;;;;;;;0.10;0.10;;;14.90;81.20;;;;;;5006101;28;20049;-76
2024/04/01 03:17:44;;;;;;;0.10;0.00;;;14.90;80.80;;;;;;5002185;28;20099;-76
2024/04/01 03:20:11;;;;;;;0.10;0.10;;;15.00;81.10;;;;;;5006326;28;20462;-76
2024/04/01 03:22:36;;;;;;;0.10;0.10;;;14.90;81.70;;;;;;5004906;28;20049;-76
2024/04/01 03:25:02;;;;;;;0.10;0.10;;;14.90;81.90;;;;;;4971384;28;20426;-76
2024/04/01 03:27:28;;;;;;;0.20;0.20;;;15.00;81.90;;;;;;5004024;28;20064;-76
2024/04/01 03:29:53;;;;;;;0.05;0.05;;;14.90;81.30;;;;;;5005121;28;20042;-76
2024/04/01 03:32:19;;;;;;;0.10;0.10;;;14.90;80.50;;;;;;5034805;28;20121;-76
2024/04/01 03:34:50;;;;;;;0.10;0.10;;;15.00;81.10;;;;;;5005937;28;20034;-76
2024/04/01 03:37:16;;;;;;;0.30;0.20;;;15.00;81.30;;;;;;5005106;28;20119;-76
2024/04/01 03:39:46;;;;;;;0.10;0.10;;;14.90;81.10;;;;;;5005166;28;20074;-76
2024/04/01 03:42:12;;;;;;;0.20;0.10;;;14.90;81.10;;;;;;4998050;28;20065;-76
2024/04/01 03:44:37;;;;;;;0.38;0.10;;;14.90;81.60;;;;;;5003685;28;20045;-76
2024/04/01 03:47:03;;;;;;;0.10;0.10;;;14.90;81.10;;;;;;5002178;28;20042;-76
2024/04/01 03:49:29;;;;;;;0.10;0.10;;;14.90;81.70;;;;;;5000163;28;20049;-76
2024/04/01 03:51:55;;;;;;;0.13;0.13;;;14.90;81.50;;;;;;5005027;28;20519;-76
2024/04/01 03:54:21;;;;;;;0.20;0.10;;;14.90;81.90;;;;;;5002727;28;20045;-76
2024/04/01 03:56:48;;;;;;;0.20;0.10;;;14.90;81.60;;;;;;5005549;28;20057;-76
2024/04/01 03:59:14;;;;;;;0.17;0.15;;;14.90;81.80;;;;;;5005201;28;20053;-76
2024/04/01 04:01:40;;;;;;;0.45;0.20;;;14.90;81.90;;;;;;5004962;28;20060;-76
2024/04/01 04:04:05;;;;;;;0.30;0.10;;;14.90;81.80;;;;;;5005366;28;20058;-76
2024/04/01 04:06:31;;;;;;;0.20;0.10;;;14.90;81.40;;;;;;5004572;28;20478;-76
2024/04/01 04:08:57;;;;;;;0.10;0.10;;;14.90;81.20;;;;;;5001028;28;20038;-76
2024/04/01 04:11:22;;;;;;;0.08;0.08;;;14.90;81.20;;;;;;5002712;28;20044;-76
2024/04/01 04:13:48;;;;;;;0.28;0.15;;;14.90;81.00;;;;;;5003581;28;20503;-76
2024/04/01 04:16:14;;;;;;;0.13;0.13;;;14.90;81.00;;;;;;5003504;28;20573;-76
2024/04/01 04:18:39;;;;;;;0.20;0.20;;;14.90;81.10;;;;;;5005280;28;20073;-76
2024/04/01 04:21:09;;;;;;;0.20;0.10;;;14.90;81.30;;;;;;5002708;28;20534;-76
2024/04/01 04:23:35;;;;;;;0.10;0.10;;;14.90;81.00;;;;;;5006424;28;20049;-76
2024/04/01 04:26:00;;;;;;;0.20;0.10;;;14.90;81.60;;;;;;5001593;28;20029;-76
2024/04/01 04:28:26;;;;;;;0.10;0.10;;;14.90;81.00;;;;;;5003908;28;20544;-76
2024/04/01 04:30:52;;;;;;;0.13;0.10;;;14.90;80.80;;;;;;5004435;28;20045;-76
2024/04/01 04:33:17;;;;;;;0.20;0.20;;;14.90;81.50;;;;;;5006412;28;20046;-75
2024/04/01 04:35:43;;;;;;;0.10;0.08;;;14.90;81.10;;;;;;5003998;28;20137;-76
2024/04/01 04:38:09;;;;;;;0.32;0.20;;;14.90;80.90;;;;;;5003802;28;20046;-76
2024/04/01 04:40:34;;;;;;;0.10;0.10;;;14.90;81.00;;;;;;5001710;28;20046;-76
2024/04/01 04:43:00;;;;;;;0.10;0.10;;;14.90;81.30;;;;;;5003547;28;20553;-76
2024/04/01 04:45:25;;;;;;;0.20;0.20;;;14.90;81.20;;;;;;5015713;28;20130;-76
2024/04/01 04:47:51;;;;;;;0.30;0.17;;;14.90;81.20;;;;;;5003491;28;20058;-76
2024/04/01 04:50:20;;;;;;;0.20;0.20;;;14.90;81.00;;;;;;4986247;28;20092;-75
2024/04/01 04:52:46;;;;;;;0.28;0.10;;;14.90;81.10;;;;;;5004802;28;20062;-76
2024/04/01 04:55:11;;;;;;;0.85;0.20;;;14.90;80.80;;;;;;4986744;28;20686;-76
2024/04/01 04:57:37;;;;;;;0.20;0.10;;;14.90;81.10;;;;;;5005733;28;20077;-76
2024/04/01 05:00:22;;;;;;;0.10;0.10;;;14.90;81.90;;;;;;5000735;28;20512;-76
2024/04/01 05:02:47;;;;;;;;;;;14.90;81.00;;;;;;5003816;28;20129;-76
2024/04/01 05:05:14;;;;;;;0.10;0.10;;;14.90;81.30;;;;;;5005777;28;19913;-76
2024/04/01 05:07:40;;;;;;;0.13;0.13;;;14.90;81.10;;;;;;5006447;28;20046;-76
2024/04/01 05:10:06;;;;;;;0.10;0.10;;;14.90;81.10;;;;;;4989908;28;20053;-76
2024/04/01 05:12:32;;;;;;;0.25;0.20;;;14.90;81.50;;;;;;5009121;28;20393;-76
2024/04/01 05:14:58;;;;;;;0.25;0.10;;;14.90;81.50;;;;;;5036310;28;20046;-76
2024/04/01 05:17:23;;;;;;;0.10;0.10;;;14.90;82.10;;;;;;5036840;28;20121;-76
2024/04/01 05:19:49;;;;;;;0.00;0.00;;;14.90;81.50;;;;;;5006771;28;20124;-76
2024/04/01 05:22:15;;;;;;;0.10;0.10;;;14.90;81.50;;;;;;4989781;28;20026;-76
2024/04/01 05:24:40;;;;;;;0.10;0.10;;;14.90;82.00;;;;;;5008726;28;20448;-75
2024/04/01 05:27:06;;;;;;;0.10;0.10;;;14.80;81.30;;;;;;5006773;28;20050;-76
2024/04/01 05:29:31;;;;;;;0.10;0.10;;;14.80;81.10;;;;;;5006489;28;20038;-76
2024/04/01 05:31:57;;;;;;;0.20;0.20;;;14.80;81.20;;;;;;5016492;28;20037;-75
2024/04/01 05:34:24;;;;;;;0.00;0.00;;;14.80;81.90;;;;;;5007201;28;20041;-76
2024/04/01 05:36:49;;;;;;;0.10;0.10;;;14.80;81.80;;;;;;5008369;28;20048;-76
2024/04/01 05:39:15;;;;;;;0.10;0.10;;;14.80;81.90;;;;;;5004720;28;20050;-76
2024/04/01 05:41:40;;;;;;;0.30;0.10;;;14.80;82.00;;;;;;5034834;28;20042;-76
2024/04/01 05:44:06;;;;;;;0.20;0.20;;;14.90;81.70;;;;;;5005913;28;20038;-76
2024/04/01 05:46:32;;;;;;;0.10;0.10;;;14.80;82.00;;;;;;5005371;28;20042;-76
2024/04/01 05:48:57;;;;;;;0.17;0.10;;;14.90;82.00;;;;;;5005963;28;20717;-76
2024/04/01 05:51:23;;;;;;;0.20;0.20;;;14.80;82.20;;;;;;5005373;28;20046;-76
2024/04/01 05:53:49;;;;;;;0.13;0.10;;;14.80;82.00;;;;;;5006359;28;20491;-76
2024/04/01 05:56:15;;;;;;;0.10;0.10;;;14.90;82.10;;;;;;5003535;28;20412;-76
2024/04/01 05:58:42;;;;;;;0.15;0.15;;;14.80;82.50;;;;;;5006397;28;20060;-76
2024/04/01 06:01:08;;;;;;;0.20;0.20;;;14.80;82.50;;;;;;4990623;28;24108;-76
2024/04/01 06:03:33;;;;;;;0.20;0.10;;;14.80;82.20;;;;;;5008388;28;20050;-76
2024/04/01 06:05:59;;;;;;;0.17;0.10;;;14.80;82.40;;;;;;5003802;28;20054;-76
2024/04/01 06:08:25;;;;;;;0.10;0.10;;;14.80;82.80;;;;;;5000199;28;20054;-76
2024/04/01 06:10:50;;;;;;;1.33;0.05;;;14.80;82.10;;;;;;4990675;28;20060;-76
2024/04/01 06:13:16;;;;;;;0.10;0.10;;;14.80;81.60;;;;;;5003615;28;20050;-76
2024/04/01 06:15:43;;;;;;;0.20;0.20;;;14.80;81.60;;;;;;5005175;28;20045;-76
2024/04/01 06:18:08;;;;;;;0.10;0.00;;;14.80;81.50;;;;;;5030838;28;20056;-76
2024/04/01 06:20:34;;;;;;;0.10;0.10;;;14.80;81.30;;;;;;5006853;28;20041;-76
2024/04/01 06:22:59;;;;;;;0.08;0.08;;;14.80;81.40;;;;;;5006104;28;20447;-76
2024/04/01 06:25:25;;;;;;;0.10;0.10;;;14.80;81.90;;;;;;5032930;28;20416;-76
2024/04/01 06:27:51;;;;;;;0.10;0.10;;;14.80;81.80;;;;;;4987875;28;20137;-76
2024/04/01 06:30:16;;;;;;;0.08;0.03;;;14.80;81.80;;;;;;4987492;28;20243;-76
2024/04/01 06:32:42;;;;;;;0.10;0.10;;;14.80;81.60;;;;;;4987716;28;20177;-76
2024/04/01 06:35:07;;;;;;;0.10;0.10;;;14.80;81.30;;;;;;5000684;28;20515;-76
2024/04/01 06:37:34;;;;;;;0.00;0.00;;;14.80;81.70;;;;;;5003669;28;20047;-76
2024/04/01 06:40:01;;;;;;;0.10;0.10;;;14.80;81.50;;;;;;5005121;28;20276;-76
2024/04/01 06:42:26;;;;;;;0.17;0.03;;;14.80;81.60;;;;;;5007145;28;20025;-76
2024/04/01 06:44:52;;;;;;;0.08;0.08;;;14.80;81.60;;;;;;5005970;28;20121;-76
2024/04/01 06:47:18;;;;;;;0.15;0.10;;;14.80;81.30;;;;;;5000805;28;20049;-76
2024/04/01 06:49:43;;;;;;;0.10;0.10;;;14.80;81.90;;;;;;5006178;28;20415;-76
2024/04/01 06:52:09;;;;;;;0.40;0.20;;;14.80;81.40;;;;;;5003642;28;20061;-76
2024/04/01 06:54:35;;;;;;;0.10;0.10;;;14.80;81.40;;;;;;5006222;28;20053;-75
2024/04/01 06:57:02;;;;;;;0.22;0.10;;;14.80;81.40;;;;;;4987522;28;20042;-76
2024/04/01 06:59:28;;;;;;;0.00;0.00;;;14.80;81.60;;;;;;5034489;28;20043;-76
2024/04/01 07:01:53;;;;;;;0.28;0.20;;;14.80;81.80;;;;;;5035488;28;20120;-76
2024/04/01 07:04:19;;;;;;;0.13;0.13;;;14.80;82.00;;;;;;5004489;28;20133;-76
2024/04/01 07:06:44;;;;;;;0.38;0.10;;;14.80;81.20;;;;;;4987702;28;20046;-76
2024/04/01 07:09:10;;;;;;;0.40;0.20;;;14.80;82.30;;;;;;4989762;28;20038;-76
2024/04/01 07:11:36;;;;;;;0.20;0.20;;;14.80;81.50;;;;;;5005399;28;20160;-76
2024/04/01 07:14:01;;;;;;;0.10;0.10;;;14.80;81.50;;;;;;5004592;28;20041;-76
2024/04/01 07:16:27;;;;;;;0.10;0.10;;;14.80;81.50;;;;;;5005848;28;20042;-76
2024/04/01 07:18:53;;;;;;;0.15;0.15;;;14.80;81.70;;;;;;5004151;28;20091;-76
2024/04/01 07:21:18;;;;;;;0.20;0.10;;;14.80;82.10;;;;;;5003568;28;20492;-76
2024/04/01 07:23:47;;;;;;;0.47;0.30;;;14.80;82.10;;;;;;5014410;28;20182;-76
2024/04/01 07:26:12;;;;;;;0.20;0.20;;;14.80;81.70;;;;;;4988235;28;20085;-76
2024/04/01 07:28:38;;;;;;;0.13;0.13;;;14.80;82.50;;;;;;5003002;28;20034;-76
2024/04/01 07:31:07;;;;;;;0.17;0.10;;;14.90;82.00;;;;;;5003357;28;20042;-76
2024/04/01 07:33:33;;;;;;;0.13;0.10;;;14.80;82.10;;;;;;5005161;28;20065;-76
2024/04/01 07:35:59;;;;;;;0.10;0.10;;;14.80;82.00;;;;;;5003011;28;20052;-76
2024/04/01 07:38:25;;;;;;;0.20;0.20;;;14.80;82.70;;;;;;5004899;28;20455;-76
2024/04/01 07:40:50;;;;;;;0.22;0.17;;;14.80;82.00;;;;;;5004893;28;20719;-76
2024/04/01 07:43:16;;;;;;;0.20;0.10;;;14.80;81.80;;;;;;5004281;28;20574;-76
2024/04/01 07:45:43;;;;;;;0.17;0.17;;;14.80;82.50;;;;;;5002415;28;20040;-76
2024/04/01 07:48:08;;;;;;;0.10;0.10;;;14.80;81.90;;;;;;5004210;28;20053;-76
2024/04/01 07:50:35;;;;;;;0.40;0.10;;;14.90;81.90;;;;;;5004215;28;20123;-76
2024/04/01 07:53:01;;;;;;;0.10;0.08;;;14.90;81.80;;;;;;5004572;28;20499;-76
2024/04/01 07:55:26;;;;;;;0.00;0.00;;;14.90;81.90;;;;;;5005981;28;20048;-76
2024/04/01 07:57:52;;;;;;;0.10;0.10;;;14.90;82.00;;;;;;5005279;28;20515;-76
2024/04/01 08:00:18;;;;;;;0.10;0.10;;;14.90;81.70;;;;;;5005243;28;20061;-76
2024/04/01 08:02:43;;;;;;;0.10;0.10;;;14.90;81.80;;;;;;5004282;28;20499;-76
2024/04/01 08:05:09;;;;;;;0.20;0.10;;;14.90;81.60;;;;;;5003500;28;20085;-76
2024/04/01 08:07:34;;;;;;;0.25;0.10;;;14.90;81.60;;;;;;5003344;28;20056;-76
2024/04/01 08:10:00;;;;;;;0.10;0.10;;;14.90;82.00;;;;;;5003505;28;20042;-76
2024/04/01 08:12:25;;;;;;;0.13;0.13;;;14.90;81.90;;;;;;5005296;28;20046;-76
2024/04/01 08:14:51;;;;;;;0.03;0.00;;;14.90;82.00;;;;;;4986701;28;20076;-76
2024/04/01 08:17:17;;;;;;;0.20;0.10;;;14.90;81.90;;;;;;5004511;28;20499;-76
2024/04/01 08:19:47;;;;;;;0.13;0.13;;;14.90;82.30;;;;;;5004054;28;20121;-76
2024/04/01 08:22:14;;;;;;;0.10;0.10;;;15.00;81.90;;;;;;5003415;28;20416;-76
2024/04/01 08:24:39;;;;;;;0.08;0.08;;;14.90;81.70;;;;;;5005813;28;20432;-76
2024/04/01 08:27:05;;;;;;;0.20;0.20;;;15.00;81.70;;;;;;5003779;28;20084;-76
2024/04/01 08:29:31;;;;;;;0.15;0.10;;;15.00;82.60;;;;;;5003213;28;20042;-76
2024/04/01 08:31:56;;;;;;;0.20;0.20;;;15.00;82.50;;;;;;4987822;28;20442;-76
2024/04/01 08:34:22;;;;;;;0.10;0.10;;;15.00;82.30;;;;;;5003633;28;20585;-76
2024/04/01 08:36:47;;;;;;;0.20;0.10;;;15.00;82.50;;;;;;5003727;28;20041;-76
2024/04/01 08:39:13;;;;;;;0.10;0.10;;;15.00;82.30;;;;;;5004709;28;20030;-76
2024/04/01 08:41:58;;;;;;;0.30;0.10;;;15.00;82.10;;;;;;5008072;28;20067;-76
2024/04/01 08:44:24;;;;;;;0.20;0.10;;;15.00;82.10;;;;;;5009070;28;20042;-76
2024/04/01 08:46:51;;;;;;;0.20;0.10;;;15.00;81.80;;;;;;5005482;28;20069;-76
2024/04/01 08:49:40;;;;;;;0.00;0.00;;;15.10;81.90;;;;;;5006299;28;20288;-76
2024/04/01 08:52:05;;;;;;;0.20;0.10;;;15.10;81.70;;;;;;5003832;28;20061;-76
2024/04/01 08:54:31;;;;;;;0.10;0.00;;;15.10;82.00;;;;;;5008706;28;20038;-76
2024/04/01 08:56:57;;;;;;;0.20;0.10;;;15.10;82.30;;;;;;5008790;28;20136;-76
2024/04/01 08:59:22;;;;;;;0.10;0.10;;;15.10;81.90;;;;;;5005986;28;20504;-76
2024/04/01 09:01:48;;;;;;;0.00;0.00;;;15.20;81.50;;;;;;5007509;28;20042;-76
2024/04/01 09:04:13;;;;;;;0.10;0.10;;;15.20;81.20;;;;;;5003652;28;20176;-76
2024/04/01 09:06:39;;;;;;;0.30;0.10;;;15.30;81.20;;;;;;5009354;28;20045;-76
2024/04/01 09:09:05;;;;;;;0.13;0.10;;;15.40;81.80;;;;;;5007513;28;20432;-76
2024/04/01 09:11:30;;;;;;;0.03;0.03;;;15.40;81.30;;;;;;5007282;28;20052;-76
2024/04/01 09:13:56;;;;;;;0.20;0.17;;;15.40;81.80;;;;;;5007983;28;20585;-76
2024/04/01 09:16:26;;;;;;;0.17;0.10;;;15.50;80.90;;;;;;5006824;28;20042;-76
2024/04/01 09:18:52;;;;;;;0.15;0.15;;;15.50;80.60;;;;;;5034382;28;20052;-76
2024/04/01 09:21:21;;;;;;;0.17;0.10;;;15.50;81.30;;;;;;5007722;28;20038;-76
2024/04/01 09:23:46;;;;;;;0.20;0.10;;;15.50;81.10;;;;;;5008197;28;20107;-76
2024/04/01 09:26:13;;;;;;;0.10;0.00;;;15.60;80.40;;;;;;5005621;28;20045;-76
2024/04/01 09:28:38;;;;;;;0.00;0.00;;;15.60;80.50;;;;;;5005973;28;20061;-76
2024/04/01 09:31:04;;;;;;;0.52;0.10;;;15.60;80.00;;;;;;5007714;28;20050;-76
2024/04/01 09:33:30;;;;;;;0.30;0.10;;;15.60;79.90;;;;;;5008561;28;20751;-76
2024/04/01 09:35:55;;;;;;;0.10;0.00;;;15.70;79.80;;;;;;5004058;28;20117;-76
2024/04/01 09:38:22;;;;;;;0.10;0.10;;;15.70;80.10;;;;;;5006330;28;20065;-76
2024/04/01 09:40:52;;;;;;;0.13;0.10;;;15.80;79.70;;;;;;5007707;28;20018;-76
2024/04/01 09:43:31;;;;;;;0.10;0.05;;;15.70;80.00;;;;;;5005563;28;20525;-76
2024/04/01 09:45:57;;;;;;;0.10;0.10;;;15.70;80.10;;;;;;5035555;28;20050;-76
2024/04/01 09:48:25;;;;;;;0.05;0.05;;;15.70;80.60;;;;;;5005470;28;20503;-76
2024/04/01 09:50:59;;;;;;;0.45;0.20;;;15.70;80.20;;;;;;5004954;28;20041;-76
2024/04/01 09:53:26;;;;;;;0.08;0.08;;;15.70;79.80;;;;;;5003466;28;20124;-76
2024/04/01 09:56:01;;;;;;;0.30;0.10;;;15.80;79.90;;;;;;4975961;28;20048;-76
2024/04/01 09:58:54;;;;;;;0.20;0.00;;;15.80;80.30;;;;;;5005825;28;20057;-76
2024/04/01 10:01:28;;;;;;;0.10;0.10;;;15.90;79.60;;;;;;5004721;28;20491;-76
2024/04/01 10:04:32;;;;;;;0.15;0.15;;;15.90;79.60;;;;;;5031820;28;20037;-76
2024/04/01 10:06:57;;;;;;;0.10;0.10;;;15.90;80.00;;;;;;4981624;28;20145;-76
2024/04/01 10:09:50;;;;;;;0.10;0.10;;;15.90;79.90;;;;;;4981441;28;20520;-76
2024/04/01 10:12:24;;;;;;;0.10;0.10;;;15.90;79.80;;;;;;4968353;28;20046;-76
2024/04/01 10:15:26;;;;;;;0.22;0.22;;;15.90;79.40;;;;;;4980620;28;20096;-76
2024/04/01 10:18:13;;;;;;;0.20;0.13;;;15.80;79.10;;;;;;4979865;28;20125;-76
2024/04/01 10:20:48;;;;;;;0.10;0.10;;;15.90;79.20;;;;;;4984834;28;20038;-76
2024/04/01 10:23:16;;;;;;;0.22;0.10;;;15.80;79.40;;;;;;4998184;28;20107;-76
2024/04/01 10:26:24;;;;;;;0.10;0.10;;;15.80;79.40;;;;;;4994112;28;20066;-76
2024/04/01 10:29:10;;;;;;;0.10;0.10;;;15.80;79.70;;;;;;4982653;28;20188;-76
2024/04/01 10:31:52;;;;;;;0.30;0.30;;;15.90;79.20;;;;;;4983978;28;20050;-76
2024/04/01 10:34:57;;;;;;;0.40;0.10;;;15.90;79.90;;;;;;4997160;28;20195;-76
2024/04/01 10:37:56;;;;;;;0.10;0.10;;;15.90;79.50;;;;;;4986890;28;20050;-76
2024/04/01 10:40:22;;;;;;;0.20;0.10;;;16.00;79.40;;;;;;4998545;28;20057;-76
2024/04/01 10:43:24;;;;;;;0.10;0.10;;;16.00;78.70;;;;;;4997353;28;20411;-76
2024/04/01 10:46:22;;;;;;;0.00;0.00;;;16.00;78.50;;;;;;5001209;28;20046;-76
2024/04/01 10:49:42;;;;;;;0.65;0.10;;;16.10;78.80;;;;;;4985693;28;20606;-76
2024/04/01 10:52:25;;;;;;;0.10;0.10;;;16.10;78.70;;;;;;5002424;28;20096;-76
2024/04/01 10:55:07;;;;;;;0.00;0.00;;;16.10;79.20;;;;;;4988627;28;20045;-76
2024/04/01 10:58:03;;;;;;;0.30;0.20;;;16.10;78.60;;;;;;4978176;28;20261;-76
2024/04/01 11:01:04;;;;;;;0.10;0.10;;;16.10;79.20;;;;;;5001941;28;20080;-76
2024/04/01 11:04:09;;;;;;;0.30;0.20;;;16.10;79.60;;;;;;4996231;28;20046;-76
2024/04/01 11:06:56;;;;;;;0.10;0.10;;;16.20;79.20;;;;;;4965979;28;20650;-76
2024/04/01 11:09:42;;;;;;;0.20;0.20;;;16.20;79.20;;;;;;4985370;28;20048;-76
2024/04/01 11:12:17;;;;;;;0.10;0.08;;;16.20;79.50;;;;;;4999473;28;20034;-76
2024/04/01 11:14:42;;;;;;;;;;;16.20;79.00;;;;;;4972184;28;20045;-76
2024/04/01 11:17:08;;;;;;;0.28;0.17;;;16.20;78.60;;;;;;4985357;28;20223;-75
2024/04/01 11:19:52;;;;;;;0.10;0.10;;;16.10;78.40;;;;;;4973346;28;20081;-76
2024/04/01 11:22:20;;;;;;;;;;;16.20;79.00;;;;;;4987875;28;20084;-76
2024/04/01 11:24:57;;;;;;;0.20;0.20;;;16.10;78.60;;;;;;5004018;28;19972;-76
2024/04/01 11:27:42;;;;;;;0.10;0.10;;;16.10;78.70;;;;;;5003814;28;20041;-76
2024/04/01 11:30:26;;;;;;;0.20;0.20;;;16.10;79.40;;;;;;5003407;28;20530;-76
2024/04/01 11:33:13;;;;;;;0.20;0.10;;;16.00;79.40;;;;;;4982972;28;20122;-76
2024/04/01 11:35:50;;;;;;;0.10;0.10;;;16.00;79.50;;;;;;4998125;28;20046;-76
2024/04/01 11:38:51;;;;;;;0.25;0.10;;;16.10;79.40;;;;;;5002793;28;20419;-76
2024/04/01 11:41:17;;;;;;;0.20;0.20;;;16.10;79.50;;;;;;5003227;28;20074;-76
2024/04/01 11:43:43;;;;;;;0.13;0.13;;;16.20;79.00;;;;;;5002899;28;20060;-76
2024/04/01 11:46:09;;;;;;;0.20;0.13;;;16.20;79.20;;;;;;4989131;28;20057;-76
2024/04/01 11:48:34;;;;;;;0.10;0.10;;;16.20;79.10;;;;;;5005488;28;20052;-76
2024/04/01 11:51:00;;;;;;;0.10;0.10;;;16.20;78.90;;;;;;4986291;28;20124;-76
2024/04/01 11:53:25;;;;;;;0.15;0.10;;;16.20;78.70;;;;;;4987981;28;20045;-76
2024/04/01 11:55:56;;;;;;;0.17;0.10;;;16.20;78.30;;;;;;4988912;28;20522;-76
2024/04/01 11:58:22;;;;;;;0.00;0.00;;;16.20;78.80;;;;;;5000893;28;20042;-76
2024/04/01 12:00:54;;;;;;;0.20;0.10;;;16.20;78.60;;;;;;5004788;28;20119;-76
2024/04/01 12:03:21;;;;;;;0.10;0.10;;;16.20;78.50;;;;;;5034176;28;20144;-76
2024/04/01 12:05:51;;;;;;;0.25;0.20;;;16.30;79.00;;;;;;4985754;28;20056;-76
2024/04/01 12:08:21;;;;;;;0.10;0.10;;;16.30;79.10;;;;;;5016901;28;20057;-76
2024/04/01 12:10:46;;;;;;;0.10;0.10;;;16.20;78.80;;;;;;5005357;28;20511;-76
2024/04/01 12:13:16;;;;;;;0.10;0.10;;;16.30;78.80;;;;;;5005356;28;20057;-76
2024/04/01 12:15:43;;;;;;;0.10;0.10;;;16.30;79.70;;;;;;5007446;28;20458;-76
2024/04/01 12:18:10;;;;;;;0.13;0.10;;;16.30;79.40;;;;;;5005443;28;20038;-76
2024/04/01 12:20:39;;;;;;;0.10;0.10;;;16.20;79.70;;;;;;5007852;28;20045;-76
2024/04/01 12:23:06;;;;;;;0.20;0.20;;;16.20;79.50;;;;;;4992011;28;20046;-76
2024/04/01 12:25:32;;;;;;;0.30;0.20;;;16.20;79.90;;;;;;5006377;28;20377;-76
2024/04/01 12:28:08;;;;;;;0.10;0.00;;;16.20;79.50;;;;;;5035759;28;20053;-76
2024/04/01 12:30:39;;;;;;;0.10;0.10;;;16.20;79.40;;;;;;4989998;28;20048;-76
2024/04/01 12:33:05;;;;;;;0.17;0.10;;;16.20;79.40;;;;;;5006891;28;20050;-76
2024/04/01 12:35:32;;;;;;;0.30;0.10;;;16.20;79.60;;;;;;5007424;28;20097;-76
2024/04/01 12:38:04;;;;;;;0.13;0.10;;;16.20;79.20;;;;;;5010874;28;20050;-76
2024/04/01 12:40:44;;;;;;;0.60;0.10;;;16.20;79.70;;;;;;5004759;28;20041;-76
2024/04/01 12:43:17;;;;;;;0.13;0.13;;;16.30;79.20;;;;;;5037067;28;20081;-76
2024/04/01 12:45:43;;;;;;;0.25;0.10;;;16.30;79.20;;;;;;5014147;28;20045;-76
2024/04/01 12:48:14;;;;;;;0.17;0.10;;;16.30;79.30;;;;;;5007149;28;20058;-76
2024/04/01 12:50:46;;;;;;;0.30;0.13;;;16.30;78.70;;;;;;4990313;28;20042;-76
2024/04/01 12:53:30;;;;;;;0.10;0.10;;;16.40;79.00;;;;;;5004133;28;20053;-76
2024/04/01 12:56:05;;;;;;;0.17;0.10;;;16.40;78.80;;;;;;4982449;28;20038;-76